createdAt,value
2023-06-19T00:00:31.383Z,22.77
2023-06-19T00:02:58.251Z,22.85
2023-06-19T00:05:26.128Z,22.97
2023-06-19T00:07:52.928Z,22.65
2023-06-19T00:10:19.538Z,22.94
2023-06-19T00:15:12.694Z,22.95
2023-06-19T00:17:39.694Z,23.01
2023-06-19T00:20:06.863Z,22.94
2023-06-19T00:22:33.453Z,22.97
2023-06-19T00:25:00.386Z,22.95
2023-06-19T00:27:27.516Z,22.99
2023-06-19T00:29:54.252Z,22.92
2023-06-19T00:32:21.351Z,22.69
2023-06-19T00:34:48.012Z,22.86
2023-06-19T00:37:14.678Z,23.03
2023-06-19T00:39:43.748Z,23.01
2023-06-19T00:42:11.258Z,22.78
2023-06-19T00:44:37.786Z,23.01
2023-06-19T00:47:05.478Z,22.91
2023-06-19T00:49:32.576Z,22.99
2023-06-19T00:51:59.225Z,22.69
2023-06-19T00:54:26.302Z,22.89
2023-06-19T00:56:53.508Z,22.74
2023-06-19T00:59:20.851Z,22.98
2023-06-19T01:01:48.162Z,22.79
2023-06-19T01:04:15.330Z,22.99
2023-06-19T01:06:54.025Z,22.96
2023-06-19T01:09:21.489Z,22.93
2023-06-19T01:11:53.373Z,22.92
2023-06-19T01:14:27.173Z,22.80
2023-06-19T01:16:53.693Z,22.92
2023-06-19T01:19:21.874Z,22.96
2023-06-19T01:21:51.310Z,22.96
2023-06-19T01:24:17.908Z,22.79
2023-06-19T01:26:46.968Z,22.85
2023-06-19T01:29:16.749Z,22.88
2023-06-19T01:32:08.070Z,22.91
2023-06-19T01:34:35.350Z,22.88
2023-06-19T01:37:03.326Z,22.88
2023-06-19T01:39:29.988Z,22.76
2023-06-19T01:41:57.107Z,22.82
2023-06-19T01:44:23.719Z,22.73
2023-06-19T01:46:51.870Z,22.64
2023-06-19T01:49:19.330Z,22.92
2023-06-19T01:51:45.838Z,22.84
2023-06-19T01:54:12.295Z,22.82
2023-06-19T01:56:38.825Z,22.87
2023-06-19T01:59:05.372Z,22.84
2023-06-19T02:01:31.825Z,22.90
2023-06-19T02:03:58.338Z,22.95
2023-06-19T02:06:24.864Z,23.01
2023-06-19T02:08:51.373Z,22.98
2023-06-19T02:11:17.865Z,23.03
2023-06-19T02:13:44.409Z,23.14
2023-06-19T02:16:10.999Z,23.09
2023-06-19T02:18:37.503Z,23.00
2023-06-19T02:21:04.254Z,22.91
2023-06-19T02:23:30.790Z,22.84
2023-06-19T02:25:57.248Z,22.95
2023-06-19T02:28:23.720Z,22.81
2023-06-19T02:30:50.163Z,22.77
2023-06-19T02:33:16.651Z,22.71
2023-06-19T02:35:43.087Z,22.70
2023-06-19T02:38:09.583Z,22.57
2023-06-19T02:40:36.056Z,22.67
2023-06-19T02:43:02.569Z,22.64
2023-06-19T02:45:29.076Z,22.64
2023-06-19T02:47:55.748Z,22.69
2023-06-19T02:50:22.638Z,22.73
2023-06-19T02:52:49.412Z,22.61
2023-06-19T02:55:15.974Z,22.68
2023-06-19T02:57:42.459Z,22.53
2023-06-19T03:00:11.276Z,22.28
2023-06-19T03:02:37.973Z,22.30
2023-06-19T03:05:04.713Z,22.32
2023-06-19T03:07:31.209Z,22.24
2023-06-19T03:09:57.686Z,22.18
2023-06-19T03:12:24.152Z,22.33
2023-06-19T03:14:50.669Z,22.24
2023-06-19T03:17:17.163Z,22.28
2023-06-19T03:19:43.637Z,22.30
2023-06-19T03:22:10.137Z,22.24
2023-06-19T03:24:36.677Z,22.29
2023-06-19T03:27:03.420Z,22.30
2023-06-19T03:29:29.864Z,22.35
2023-06-19T03:31:56.363Z,22.47
2023-06-19T03:34:22.906Z,22.53
2023-06-19T03:36:49.344Z,22.54
2023-06-19T03:39:15.904Z,22.51
2023-06-19T03:41:42.356Z,22.56
2023-06-19T03:44:08.790Z,22.68
2023-06-19T03:46:35.400Z,22.66
2023-06-19T03:49:01.972Z,22.73
2023-06-19T03:51:30.196Z,22.75
2023-06-19T03:53:56.758Z,22.77
2023-06-19T03:56:23.261Z,22.80
2023-06-19T03:58:49.760Z,22.87
2023-06-19T04:01:16.275Z,22.83
2023-06-19T04:03:42.812Z,22.71
2023-06-19T04:06:09.357Z,22.80
2023-06-19T04:08:35.918Z,22.81
2023-06-19T04:11:02.402Z,22.80
2023-06-19T04:13:28.884Z,22.91
2023-06-19T04:15:55.432Z,22.91
2023-06-19T04:18:21.938Z,22.86
2023-06-19T04:20:48.470Z,22.77
2023-06-19T04:23:14.992Z,22.52
2023-06-19T04:25:41.570Z,22.69
2023-06-19T04:28:08.060Z,22.82
2023-06-19T04:30:34.589Z,22.67
2023-06-19T04:33:01.347Z,22.51
2023-06-19T04:35:27.913Z,22.60
2023-06-19T04:37:54.819Z,22.65
2023-06-19T04:40:21.718Z,22.64
2023-06-19T04:42:48.461Z,22.55
2023-06-19T04:45:14.984Z,22.59
2023-06-19T04:47:52.460Z,22.64
2023-06-19T04:50:20.685Z,22.63
2023-06-19T04:52:48.410Z,22.53
2023-06-19T04:55:14.890Z,22.42
2023-06-19T04:57:41.368Z,22.60
2023-06-19T05:00:11.105Z,22.59
2023-06-19T05:02:38.168Z,22.63
2023-06-19T05:05:05.055Z,22.71
2023-06-19T05:07:34.402Z,22.66
2023-06-19T05:10:00.916Z,22.67
2023-06-19T05:12:27.558Z,22.67
2023-06-19T05:14:54.083Z,22.68
2023-06-19T05:17:20.928Z,22.55
2023-06-19T05:19:47.625Z,22.60
2023-06-19T05:22:14.567Z,22.59
2023-06-19T05:24:41.142Z,22.56
2023-06-19T05:27:07.778Z,22.62
2023-06-19T05:29:34.291Z,22.49
2023-06-19T05:32:00.784Z,22.51
2023-06-19T05:34:27.258Z,22.75
2023-06-19T05:36:53.819Z,23.14
2023-06-19T05:39:20.376Z,23.43
2023-06-19T05:41:47.003Z,23.65
2023-06-19T05:44:17.856Z,23.72
2023-06-19T05:46:44.632Z,23.97
2023-06-19T05:49:11.591Z,24.21
2023-06-19T05:51:38.222Z,24.25
2023-06-19T05:54:05.279Z,24.02
2023-06-19T05:56:34.286Z,24.42
2023-06-19T05:59:02.586Z,24.30
2023-06-19T06:01:30.017Z,24.03
2023-06-19T06:03:57.688Z,23.26
2023-06-19T06:06:25.111Z,23.39
2023-06-19T06:08:52.532Z,23.42
2023-06-19T06:11:19.706Z,23.18
2023-06-19T06:13:46.184Z,22.80
2023-06-19T06:16:12.766Z,22.69
2023-06-19T06:18:39.265Z,23.09
2023-06-19T06:21:05.829Z,23.68
2023-06-19T06:23:32.797Z,24.02
2023-06-19T06:26:03.513Z,24.23
2023-06-19T06:28:30.476Z,23.81
2023-06-19T06:30:56.993Z,23.97
2023-06-19T06:33:24.395Z,23.93
2023-06-19T06:35:52.582Z,23.81
2023-06-19T06:38:19.186Z,23.64
2023-06-19T06:40:45.734Z,23.59
2023-06-19T06:43:12.263Z,23.27
2023-06-19T06:45:39.354Z,23.54
2023-06-19T06:48:08.057Z,23.32
2023-06-19T06:50:35.029Z,23.35
2023-06-19T06:53:01.648Z,23.37
2023-06-19T06:55:28.158Z,23.54
2023-06-19T06:57:54.617Z,23.61
2023-06-19T07:00:21.551Z,23.67
2023-06-19T07:02:49.446Z,23.60
2023-06-19T07:05:16.019Z,23.74
2023-06-19T07:07:42.521Z,23.67
2023-06-19T07:10:10.566Z,23.55
2023-06-19T07:12:45.508Z,23.67
2023-06-19T07:15:13.025Z,24.09
2023-06-19T07:17:39.664Z,23.90
2023-06-19T07:20:07.475Z,23.34
2023-06-19T07:22:34.189Z,23.31
2023-06-19T07:25:00.756Z,23.38
2023-06-19T07:27:28.700Z,23.33
2023-06-19T07:29:55.377Z,23.43
2023-06-19T07:32:21.906Z,23.12
2023-06-19T07:34:48.435Z,23.03
2023-06-19T07:37:18.714Z,23.11
2023-06-19T07:39:46.463Z,23.38
2023-06-19T07:42:14.903Z,23.59
2023-06-19T07:44:41.921Z,23.62
2023-06-19T07:47:09.400Z,23.59
2023-06-19T07:49:36.978Z,23.53
2023-06-19T07:52:07.302Z,23.47
2023-06-19T07:54:35.629Z,23.54
2023-06-19T07:57:02.590Z,23.77
2023-06-19T07:59:29.084Z,24.00
2023-06-19T08:01:55.762Z,24.08
2023-06-19T08:04:22.286Z,24.09
2023-06-19T08:06:48.761Z,24.27
2023-06-19T08:09:15.253Z,24.34
2023-06-19T08:11:41.688Z,24.50
2023-06-19T08:14:08.154Z,24.33
2023-06-19T08:16:34.876Z,24.37
2023-06-19T08:19:01.362Z,24.41
2023-06-19T08:21:27.864Z,24.33
2023-06-19T08:23:54.361Z,24.27
2023-06-19T08:26:21.375Z,24.19
2023-06-19T08:28:48.884Z,24.25
2023-06-19T08:31:15.442Z,23.77
2023-06-19T08:33:41.978Z,23.75
2023-06-19T08:36:08.534Z,23.56
2023-06-19T08:38:35.085Z,23.56
2023-06-19T08:41:01.705Z,23.43
2023-06-19T08:43:28.544Z,23.54
2023-06-19T08:46:27.434Z,23.54
2023-06-19T08:48:56.918Z,23.38
2023-06-19T08:51:23.632Z,23.57
2023-06-19T08:53:56.665Z,23.53
2023-06-19T08:56:23.396Z,23.78
2023-06-19T08:58:50.048Z,23.93
2023-06-19T09:01:20.694Z,23.79
2023-06-19T09:03:47.963Z,23.81
2023-06-19T09:06:17.630Z,23.65
2023-06-19T09:08:44.300Z,23.64
2023-06-19T09:11:12.528Z,23.66
2023-06-19T09:13:39.151Z,23.65
2023-06-19T09:16:09.549Z,23.59
2023-06-19T09:18:49.238Z,23.61
2023-06-19T09:21:20.300Z,23.71
2023-06-19T09:23:47.691Z,23.82
2023-06-19T09:26:18.845Z,23.98
2023-06-19T09:28:45.807Z,23.88
2023-06-19T09:31:13.565Z,23.94
2023-06-19T09:33:40.986Z,23.98
2023-06-19T09:36:07.952Z,24.05
2023-06-19T09:38:39.993Z,24.10
2023-06-19T09:41:07.272Z,24.32
2023-06-19T09:43:40.817Z,24.30
2023-06-19T09:46:08.403Z,24.24
2023-06-19T09:48:36.184Z,24.15
2023-06-19T09:51:05.684Z,24.30
2023-06-19T09:53:33.293Z,24.41
2023-06-19T09:55:59.745Z,24.78
2023-06-19T09:58:27.337Z,24.94
2023-06-19T10:00:56.193Z,25.10
2023-06-19T10:03:32.005Z,25.20
2023-06-19T10:06:00.984Z,25.22
2023-06-19T10:08:32.426Z,25.24
2023-06-19T10:10:59.269Z,25.19
2023-06-19T10:13:34.397Z,25.05
2023-06-19T10:16:02.038Z,25.08
2023-06-19T10:18:28.963Z,25.28
2023-06-19T10:20:56.498Z,25.53
2023-06-19T10:23:25.877Z,25.54
2023-06-19T10:25:55.514Z,25.65
2023-06-19T10:28:23.526Z,25.98
2023-06-19T10:31:19.543Z,26.00
2023-06-19T10:33:46.028Z,25.66
2023-06-19T10:36:15.502Z,25.98
2023-06-19T10:38:42.157Z,26.47
2023-06-19T10:41:18.900Z,26.69
2023-06-19T10:43:57.038Z,27.02
2023-06-19T10:46:24.639Z,27.06
2023-06-19T10:48:51.934Z,26.94
2023-06-19T10:51:21.342Z,27.03
2023-06-19T10:53:47.852Z,26.55
2023-06-19T10:56:14.478Z,26.58
2023-06-19T10:58:40.916Z,26.81
2023-06-19T11:01:07.435Z,26.84
2023-06-19T11:03:35.885Z,26.78
2023-06-19T11:06:02.493Z,27.30
2023-06-19T11:08:29.375Z,27.67
2023-06-19T11:10:56.371Z,27.93
2023-06-19T11:13:22.884Z,27.87
2023-06-19T11:15:52.829Z,28.10
2023-06-19T11:18:19.994Z,27.39
2023-06-19T11:20:49.374Z,27.74
2023-06-19T11:23:15.892Z,27.74
2023-06-19T11:25:43.442Z,28.14
2023-06-19T11:28:14.821Z,28.45
2023-06-19T11:30:44.365Z,28.52
2023-06-19T11:33:23.854Z,28.13
2023-06-19T11:35:54.747Z,27.94
2023-06-19T11:38:23.021Z,28.03
2023-06-19T11:40:50.149Z,27.62
2023-06-19T11:43:30.835Z,27.63
2023-06-19T11:46:05.171Z,27.74
2023-06-19T11:48:32.015Z,27.65
2023-06-19T11:50:58.565Z,27.58
2023-06-19T11:53:25.798Z,28.11
2023-06-19T11:55:52.789Z,27.85
2023-06-19T11:58:21.809Z,27.62
2023-06-19T12:00:49.200Z,27.98
2023-06-19T12:03:16.451Z,28.54
2023-06-19T12:05:43.025Z,28.54
2023-06-19T12:08:09.545Z,28.49
2023-06-19T12:10:36.217Z,28.54
2023-06-19T12:13:02.712Z,28.79
2023-06-19T12:15:29.172Z,28.54
2023-06-19T12:17:58.964Z,28.63
2023-06-19T12:20:26.594Z,28.47
2023-06-19T12:22:53.500Z,28.33
2023-06-19T12:25:20.220Z,28.00
2023-06-19T12:27:46.828Z,28.12
2023-06-19T12:30:13.612Z,27.87
2023-06-19T12:32:40.189Z,28.67
2023-06-19T12:35:07.993Z,28.48
2023-06-19T12:37:34.617Z,28.44
2023-06-19T12:40:01.157Z,28.71
2023-06-19T12:42:27.984Z,28.81
2023-06-19T12:44:54.452Z,28.85
2023-06-19T12:47:21.901Z,29.02
2023-06-19T12:49:48.644Z,28.54
2023-06-19T12:52:15.206Z,29.01
2023-06-19T12:54:43.403Z,28.76
2023-06-19T12:57:10.278Z,28.60
2023-06-19T12:59:36.803Z,28.39
2023-06-19T13:02:03.641Z,28.69
2023-06-19T13:04:30.172Z,28.40
2023-06-19T13:06:56.829Z,29.04
2023-06-19T13:09:23.404Z,29.27
2023-06-19T13:11:50.737Z,29.34
2023-06-19T13:14:17.207Z,29.52
2023-06-19T13:16:46.226Z,29.80
2023-06-19T13:19:14.957Z,29.65
2023-06-19T13:21:42.287Z,28.78
2023-06-19T13:24:09.122Z,28.54
2023-06-19T13:26:36.068Z,28.87
2023-06-19T13:29:02.710Z,28.85
2023-06-19T13:31:29.547Z,28.51
2023-06-19T13:33:56.364Z,28.77
2023-06-19T13:36:24.879Z,28.58
2023-06-19T13:38:52.897Z,28.31
2023-06-19T13:41:19.740Z,28.60
2023-06-19T13:43:48.917Z,28.90
2023-06-19T13:46:15.415Z,29.22
2023-06-19T13:48:41.880Z,29.21
2023-06-19T13:51:08.866Z,29.17
2023-06-19T13:53:35.373Z,29.63
2023-06-19T13:56:01.876Z,29.57
2023-06-19T13:58:28.374Z,29.45
2023-06-19T14:00:54.959Z,29.81
2023-06-19T14:03:21.590Z,29.77
2023-06-19T14:05:48.336Z,30.12
2023-06-19T14:08:14.971Z,29.29
2023-06-19T14:10:41.458Z,29.89
2023-06-19T14:13:13.022Z,29.81
2023-06-19T14:15:41.083Z,29.84
2023-06-19T14:18:07.688Z,30.29
2023-06-19T14:20:34.216Z,30.57
2023-06-19T14:23:01.780Z,30.03
2023-06-19T14:25:28.326Z,30.50
2023-06-19T14:27:54.786Z,30.10
2023-06-19T14:30:21.300Z,29.95
2023-06-19T14:32:49.219Z,29.38
2023-06-19T14:35:16.479Z,29.57
2023-06-19T14:37:42.993Z,29.31
2023-06-19T14:40:09.941Z,29.61
2023-06-19T14:42:36.398Z,29.72
2023-06-19T14:45:02.965Z,29.83
2023-06-19T14:47:29.725Z,30.28
2023-06-19T14:49:56.356Z,30.13
2023-06-19T14:52:22.916Z,29.90
2023-06-19T14:54:49.400Z,30.36
2023-06-19T14:57:15.912Z,30.04
2023-06-19T14:59:42.394Z,30.38
2023-06-19T15:02:08.964Z,30.63
2023-06-19T15:04:35.541Z,30.58
2023-06-19T15:07:02.845Z,30.31
2023-06-19T15:09:29.315Z,31.01
2023-06-19T15:11:55.801Z,30.36
2023-06-19T15:14:22.549Z,30.28
2023-06-19T15:16:49.068Z,30.20
2023-06-19T15:19:15.803Z,30.50
2023-06-19T15:21:42.619Z,30.07
2023-06-19T15:24:09.408Z,29.15
2023-06-19T15:26:38.379Z,29.59
2023-06-19T15:29:06.567Z,29.75
2023-06-19T15:31:33.019Z,29.34
2023-06-19T15:33:59.485Z,29.53
2023-06-19T15:36:26.070Z,29.54
2023-06-19T15:38:52.575Z,29.70
2023-06-19T15:41:19.145Z,29.70
2023-06-19T15:43:45.712Z,29.10
2023-06-19T15:46:15.412Z,28.94
2023-06-19T15:48:43.097Z,28.77
2023-06-19T15:51:09.646Z,29.83
2023-06-19T15:53:37.980Z,28.91
2023-06-19T15:56:04.780Z,29.57
2023-06-19T15:58:31.517Z,28.89
2023-06-19T16:00:58.055Z,28.56
2023-06-19T16:03:25.683Z,27.96
2023-06-19T16:08:25.293Z,29.46
2023-06-19T16:10:52.051Z,29.00
2023-06-19T16:13:18.523Z,29.08
2023-06-19T16:15:44.974Z,28.96
2023-06-19T16:18:11.454Z,28.98
2023-06-19T16:20:37.997Z,29.00
2023-06-19T16:23:04.467Z,28.88
2023-06-19T16:25:30.940Z,28.84
2023-06-19T16:27:59.242Z,28.80
2023-06-19T16:30:27.379Z,29.15
2023-06-19T16:32:53.989Z,29.19
2023-06-19T16:35:23.318Z,29.43
2023-06-19T16:37:54.496Z,29.57
2023-06-19T16:40:22.578Z,29.59
2023-06-19T16:42:49.807Z,29.31
2023-06-19T16:45:16.331Z,29.42
2023-06-19T16:47:42.863Z,29.48
2023-06-19T16:50:09.771Z,29.25
2023-06-19T16:52:36.387Z,29.14
2023-06-19T16:55:03.091Z,29.16
2023-06-19T16:57:30.941Z,28.99
2023-06-19T16:59:57.942Z,28.69
2023-06-19T17:02:24.618Z,28.51
2023-06-19T17:04:51.552Z,28.65
2023-06-19T17:07:18.318Z,28.33
2023-06-19T17:09:47.070Z,28.56
2023-06-19T17:12:14.818Z,28.55
2023-06-19T17:14:42.644Z,28.28
2023-06-19T17:17:09.399Z,28.43
2023-06-19T17:19:36.251Z,28.46
2023-06-19T17:22:02.724Z,28.17
2023-06-19T17:24:29.273Z,27.85
2023-06-19T17:26:58.419Z,27.84
2023-06-19T17:29:27.388Z,27.52
2023-06-19T17:31:57.930Z,27.75
2023-06-19T17:34:24.689Z,27.93
2023-06-19T17:36:51.434Z,27.79
2023-06-19T17:39:17.942Z,27.94
2023-06-19T17:41:44.456Z,27.71
2023-06-19T17:44:11.020Z,27.44
2023-06-19T17:46:39.590Z,27.43
2023-06-19T17:49:07.483Z,27.21
2023-06-19T17:51:34.504Z,27.27
2023-06-19T17:54:05.415Z,27.29
2023-06-19T17:56:32.651Z,27.32
2023-06-19T17:58:59.226Z,27.01
2023-06-19T18:01:25.911Z,26.91
2023-06-19T18:03:53.330Z,26.86
2023-06-19T18:06:20.485Z,26.98
2023-06-19T18:08:47.109Z,27.20
2023-06-19T18:11:13.819Z,26.84
2023-06-19T18:13:40.474Z,26.72
2023-06-19T18:16:12.551Z,26.47
2023-06-19T18:18:40.452Z,26.66
2023-06-19T18:21:07.193Z,26.72
2023-06-19T18:23:33.801Z,26.31
2023-06-19T18:26:00.308Z,25.88
2023-06-19T18:28:26.756Z,25.72
2023-06-19T18:30:53.223Z,25.65
2023-06-19T18:33:19.727Z,25.73
2023-06-19T18:35:46.249Z,25.69
2023-06-19T18:38:14.071Z,25.62
2023-06-19T18:40:42.376Z,25.36
2023-06-19T18:43:09.003Z,25.10
2023-06-19T18:45:35.605Z,25.29
2023-06-19T18:48:02.308Z,25.08
2023-06-19T18:50:28.798Z,24.84
2023-06-19T18:52:57.924Z,24.71
2023-06-19T18:55:24.397Z,24.64
2023-06-19T18:57:51.939Z,24.56
2023-06-19T19:00:19.277Z,24.48
2023-06-19T19:02:46.312Z,24.24
2023-06-19T19:05:13.122Z,24.06
2023-06-19T19:07:39.555Z,24.26
2023-06-19T19:10:07.145Z,23.91
2023-06-19T19:12:33.665Z,23.94
2023-06-19T19:15:00.179Z,23.87
2023-06-19T19:17:26.682Z,23.75
2023-06-19T19:19:53.193Z,23.53
2023-06-19T19:22:19.693Z,23.29
2023-06-19T19:24:46.234Z,23.21
2023-06-19T19:27:12.793Z,23.00
2023-06-19T19:29:39.284Z,23.03
2023-06-19T19:32:06.395Z,22.93
2023-06-19T19:34:32.890Z,22.76
2023-06-19T19:36:59.353Z,22.84
2023-06-19T19:39:26.038Z,22.87
2023-06-19T19:41:52.553Z,22.81
2023-06-19T19:44:19.024Z,22.77
2023-06-19T19:46:45.772Z,22.76
2023-06-19T19:49:12.345Z,22.72
2023-06-19T19:51:38.805Z,22.55
2023-06-19T19:54:05.403Z,22.30
2023-06-19T19:56:31.929Z,22.17
2023-06-19T19:58:58.391Z,22.02
2023-06-19T20:01:24.936Z,22.00
2023-06-19T20:03:51.699Z,22.01
2023-06-19T20:06:18.992Z,22.09
2023-06-19T20:08:45.579Z,22.04
2023-06-19T20:11:13.402Z,21.61
2023-06-19T20:13:40.369Z,21.82
2023-06-19T20:16:10.314Z,21.82
2023-06-19T20:18:37.412Z,21.73
2023-06-19T20:21:03.947Z,21.67
2023-06-19T20:23:30.476Z,21.47
2023-06-19T20:25:56.946Z,21.50
2023-06-19T20:28:23.382Z,21.37
2023-06-19T20:30:49.988Z,21.22
2023-06-19T20:33:16.461Z,21.08
2023-06-19T20:35:42.912Z,21.08
2023-06-19T20:38:09.433Z,21.28
2023-06-19T20:40:35.922Z,21.23
2023-06-19T20:43:02.403Z,21.00
2023-06-19T20:45:28.890Z,20.83
2023-06-19T20:47:55.537Z,20.92
2023-06-19T20:50:22.445Z,20.74
2023-06-19T20:52:49.094Z,20.88
2023-06-19T20:55:17.348Z,20.72
2023-06-19T20:57:43.893Z,20.60
2023-06-19T21:00:11.466Z,20.67
2023-06-19T21:02:39.086Z,20.74
2023-06-19T21:05:06.666Z,20.81
2023-06-19T21:07:33.191Z,20.77
2023-06-19T21:09:59.652Z,20.67
2023-06-19T21:12:26.211Z,20.64
2023-06-19T21:14:55.432Z,20.60
2023-06-19T21:17:22.555Z,20.65
2023-06-19T21:19:49.199Z,20.39
2023-06-19T21:22:15.737Z,20.43
2023-06-19T21:24:42.259Z,20.09
2023-06-19T21:27:08.812Z,20.37
2023-06-19T21:29:36.217Z,20.36
2023-06-19T21:32:02.698Z,20.28
2023-06-19T21:34:29.218Z,19.99
2023-06-19T21:36:55.723Z,20.03
2023-06-19T21:39:22.173Z,20.07
2023-06-19T21:41:48.662Z,20.18
2023-06-19T21:44:15.195Z,20.26
2023-06-19T21:46:41.713Z,20.09
2023-06-19T21:49:08.266Z,20.02
2023-06-19T21:51:35.896Z,19.99
2023-06-19T21:54:02.911Z,19.80
2023-06-19T21:56:29.407Z,19.96
2023-06-19T21:58:55.883Z,19.85
2023-06-19T22:01:22.505Z,19.73
2023-06-19T22:03:49.092Z,19.70
2023-06-19T22:06:16.928Z,19.62
2023-06-19T22:08:43.538Z,19.71
2023-06-19T22:11:10.288Z,19.67
2023-06-19T22:13:37.053Z,19.62
2023-06-19T22:16:03.690Z,19.59
2023-06-19T22:18:30.205Z,19.61
2023-06-19T22:20:56.729Z,19.68
2023-06-19T22:23:23.258Z,19.55
2023-06-19T22:25:50.180Z,19.59
2023-06-19T22:28:16.699Z,19.51
2023-06-19T22:30:43.536Z,19.51
2023-06-19T22:33:10.786Z,19.60
2023-06-19T22:35:37.400Z,19.47
2023-06-19T22:38:03.933Z,19.44
2023-06-19T22:40:30.624Z,19.62
2023-06-19T22:42:57.232Z,19.59
2023-06-19T22:45:24.041Z,19.48
2023-06-19T22:47:51.487Z,19.38
2023-06-19T22:50:18.084Z,19.33
2023-06-19T22:52:44.527Z,19.27
2023-06-19T22:55:11.222Z,19.24
2023-06-19T22:57:37.787Z,19.24
2023-06-19T23:00:11.250Z,19.24
2023-06-19T23:02:37.852Z,19.25
2023-06-19T23:05:05.441Z,19.09
2023-06-19T23:07:34.524Z,19.08
2023-06-19T23:10:01.282Z,19.02
2023-06-19T23:12:27.938Z,19.13
2023-06-19T23:14:54.420Z,18.98
2023-06-19T23:17:21.018Z,19.00
2023-06-19T23:19:47.531Z,19.09
2023-06-19T23:22:13.978Z,18.94
2023-06-19T23:24:41.485Z,18.80
2023-06-19T23:27:09.473Z,19.02
2023-06-19T23:29:37.143Z,18.60
2023-06-19T23:32:06.866Z,18.54
2023-06-19T23:34:34.088Z,18.97
2023-06-19T23:37:00.664Z,18.91
2023-06-19T23:39:27.145Z,18.94
2023-06-19T23:41:53.617Z,18.87
2023-06-19T23:44:20.234Z,18.80
2023-06-19T23:46:47.013Z,18.82
2023-06-19T23:49:13.619Z,18.80
2023-06-19T23:51:40.603Z,18.78
2023-06-19T23:54:07.092Z,18.59
2023-06-19T23:56:34.180Z,18.51
2023-06-19T23:59:01.031Z,18.57
